Time;durP1;ratioP1;P1;durP2;ratioP2;P2;SDS_P1;SDS_P2;PMS_P1;PMS_P2;Temp;Humidity;BMP_temperature;BMP_pressure;BME280_temperature;BME280_humidity;BME280_pressure;Samples;Min_cycle;Max_cycle;Signal;HPM_P1;HPM_P2
2023/09/26 00:00:19;;;;;;;8.60;4.75;;;12.80;99.90;;;;;;5082891;28;20051;-78
2023/09/26 00:02:45;;;;;;;7.72;4.22;;;12.70;99.90;;;;;;5083902;28;20240;-78
2023/09/26 00:05:11;;;;;;;6.88;5.00;;;12.60;99.90;;;;;;5084519;28;20401;-79
2023/09/26 00:07:37;;;;;;;7.20;4.65;;;12.50;99.90;;;;;;5084881;28;20024;-78
2023/09/26 00:10:04;;;;;;;6.53;4.63;;;12.50;99.90;;;;;;5083380;28;20131;-78
2023/09/26 00:12:30;;;;;;;5.45;3.88;;;12.40;99.90;;;;;;5084540;28;20036;-78
2023/09/26 00:14:56;;;;;;;6.78;4.93;;;12.40;99.90;;;;;;5083401;28;20021;-77
2023/09/26 00:17:22;;;;;;;6.68;4.30;;;12.40;99.90;;;;;;5085659;28;20310;-77
2023/09/26 00:19:48;;;;;;;7.88;5.38;;;12.40;99.90;;;;;;5083649;28;20060;-77
2023/09/26 00:22:13;;;;;;;6.75;5.30;;;12.40;99.90;;;;;;5069018;28;20218;-79
2023/09/26 00:24:39;;;;;;;10.05;6.25;;;12.30;99.90;;;;;;5062453;28;20040;-79
2023/09/26 00:27:05;;;;;;;9.30;6.60;;;12.30;99.90;;;;;;5061982;28;20033;-77
2023/09/26 00:29:31;;;;;;;8.35;6.72;;;12.30;99.90;;;;;;5062344;28;20033;-78
2023/09/26 05:30:05;;;;;;;13.77;8.18;;;10.50;99.90;;;;;;5309349;23;20334;-78
2023/09/26 05:32:34;;;;;;;11.65;8.32;;;10.50;99.90;;;;;;4887956;29;20207;-79
2023/09/26 05:34:59;;;;;;;13.02;7.82;;;10.50;99.90;;;;;;4889488;29;20056;-78
2023/09/26 05:37:25;;;;;;;10.00;7.80;;;10.40;99.90;;;;;;4888595;29;20032;-78
2023/09/26 05:39:51;;;;;;;11.45;8.20;;;10.50;99.90;;;;;;4889069;29;20081;-77
2023/09/26 05:42:16;;;;;;;9.35;7.63;;;10.50;99.90;;;;;;4888734;29;20378;-78
2023/09/26 05:44:42;;;;;;;11.73;7.53;;;10.50;99.90;;;;;;4888125;29;20050;-77
2023/09/26 05:47:08;;;;;;;12.98;7.80;;;10.50;99.90;;;;;;4887924;29;20025;-78
2023/09/26 05:49:34;;;;;;;9.90;7.28;;;10.50;99.90;;;;;;4888848;29;20029;-78
2023/09/26 05:51:59;;;;;;;12.73;7.90;;;10.60;99.90;;;;;;4878795;29;20101;-79
2023/09/26 05:54:25;;;;;;;11.93;7.75;;;10.60;99.90;;;;;;4870044;29;20145;-78
2023/09/26 05:56:51;;;;;;;10.88;7.45;;;10.60;99.90;;;;;;4879389;29;20037;-78
2023/09/26 05:59:16;;;;;;;9.73;7.60;;;10.70;99.90;;;;;;4884472;29;20030;-78
2023/09/26 06:01:42;;;;;;;11.38;7.53;;;10.80;99.90;;;;;;4884912;29;20036;-79
2023/09/26 06:04:08;;;;;;;11.40;7.50;;;10.80;99.90;;;;;;4888699;29;20036;-78
2023/09/26 06:06:34;;;;;;;10.68;8.00;;;10.90;99.90;;;;;;4888736;29;20084;-79
2023/09/26 06:08:59;;;;;;;10.38;7.30;;;11.00;99.90;;;;;;4887927;29;20060;-79
2023/09/26 06:11:25;;;;;;;10.13;7.28;;;11.00;99.90;;;;;;4887248;29;20202;-79
2023/09/26 06:13:54;;;;;;;10.55;8.13;;;11.10;99.90;;;;;;4870304;29;20025;-78
2023/09/26 06:16:20;;;;;;;9.68;6.82;;;11.20;99.90;;;;;;4886752;29;20044;-76
2023/09/26 06:18:47;;;;;;;10.88;7.18;;;11.30;99.90;;;;;;4896674;29;20045;-77
2023/09/26 06:21:14;;;;;;;12.77;6.88;;;11.40;99.90;;;;;;4888804;29;20017;-78
2023/09/26 06:23:43;;;;;;;9.50;6.65;;;11.40;99.90;;;;;;4889455;29;20267;-75
2023/09/26 06:26:09;;;;;;;13.70;7.22;;;11.60;99.90;;;;;;4888702;29;20033;-77
2023/09/26 06:28:37;;;;;;;10.82;6.22;;;11.60;99.90;;;;;;4900435;29;20020;-76
2023/09/26 06:31:05;;;;;;;11.75;6.30;;;11.70;99.90;;;;;;4908036;29;20046;-77
2023/09/26 06:33:40;;;;;;;10.65;6.70;;;11.80;99.90;;;;;;4887795;29;20092;-76
2023/09/26 06:36:19;;;;;;;13.75;6.93;;;11.90;99.90;;;;;;4887883;29;20088;-76
2023/09/26 06:38:44;;;;;;;11.10;6.47;;;12.00;99.90;;;;;;4888527;29;20096;-74
2023/09/26 06:41:10;;;;;;;8.27;6.00;;;12.10;99.90;;;;;;4888353;29;20037;-75
2023/09/26 06:43:36;;;;;;;12.00;6.15;;;12.10;99.90;;;;;;4890129;29;20044;-74
2023/09/26 06:46:06;;;;;;;14.10;6.85;;;12.10;99.90;;;;;;4892181;29;20375;-75
2023/09/26 06:48:34;;;;;;;17.65;6.90;;;12.20;99.90;;;;;;4891722;29;20031;-75
2023/09/26 06:51:04;;;;;;;12.50;6.18;;;12.30;99.90;;;;;;4892223;29;20029;-75
2023/09/26 06:53:30;;;;;;;10.77;6.22;;;12.30;99.90;;;;;;4886037;29;20263;-76
2023/09/26 06:56:06;;;;;;;10.32;6.07;;;12.40;99.90;;;;;;4892940;29;20024;-73
2023/09/26 06:58:36;;;;;;;9.88;6.25;;;12.50;99.90;;;;;;4892687;29;20067;-75
2023/09/26 07:01:03;;;;;;;9.27;6.30;;;12.60;99.90;;;;;;4888157;29;20038;-75
2023/09/26 07:03:32;;;;;;;12.65;6.97;;;12.60;99.90;;;;;;4872524;29;20040;-75
2023/09/26 07:05:57;;;;;;;12.63;6.30;;;12.70;99.90;;;;;;4879810;29;20028;-75
2023/09/26 07:08:23;;;;;;;11.43;6.40;;;12.70;99.90;;;;;;4891216;29;20139;-75
2023/09/26 07:10:50;;;;;;;12.52;6.72;;;12.80;99.90;;;;;;4909091;29;20032;-76
2023/09/26 07:13:16;;;;;;;12.13;7.10;;;12.90;99.90;;;;;;4908734;29;20310;-75
2023/09/26 07:15:42;;;;;;;12.40;6.68;;;13.00;99.90;;;;;;4900791;29;20033;-74
2023/09/26 07:18:10;;;;;;;11.75;6.47;;;13.00;99.90;;;;;;4872608;29;20080;-75
2023/09/26 07:20:47;;;;;;;10.10;6.38;;;13.10;99.90;;;;;;4871867;29;20337;-74
2023/09/26 07:23:14;;;;;;;8.80;5.78;;;13.10;99.90;;;;;;4872541;29;20033;-75
2023/09/26 07:25:40;;;;;;;10.00;6.55;;;13.30;99.90;;;;;;4871181;29;20034;-75
2023/09/26 07:28:06;;;;;;;13.93;6.40;;;13.40;99.90;;;;;;4873007;29;20037;-76
2023/09/26 07:30:32;;;;;;;9.35;6.18;;;13.40;99.90;;;;;;4871886;29;20046;-75
2023/09/26 07:32:57;;;;;;;8.45;5.85;;;13.60;99.90;;;;;;4891187;29;20033;-75
2023/09/26 07:35:25;;;;;;;11.80;5.80;;;13.80;99.90;;;;;;4882168;29;20055;-75
2023/09/26 07:37:51;;;;;;;9.30;6.38;;;13.90;99.90;;;;;;4890864;29;20364;-75
2023/09/26 07:40:17;;;;;;;11.05;6.45;;;14.00;99.90;;;;;;4909386;29;20045;-74
2023/09/26 07:42:55;;;;;;;10.43;5.88;;;14.10;99.90;;;;;;4909707;29;20091;-80
2023/09/26 07:45:21;;;;;;;14.15;6.28;;;14.20;99.90;;;;;;4908644;29;20063;-74
2023/09/26 07:47:48;;;;;;;9.90;5.90;;;14.20;99.90;;;;;;4909472;29;20211;-75
2023/09/26 07:50:13;;;;;;;9.93;5.93;;;14.30;99.90;;;;;;4909642;29;20036;-75
2023/09/26 07:52:39;;;;;;;8.27;5.53;;;14.40;99.90;;;;;;4909680;29;20318;-76
2023/09/26 07:55:06;;;;;;;11.05;5.82;;;14.50;99.90;;;;;;4906722;29;20032;-74
2023/09/26 07:57:31;;;;;;;6.40;4.85;;;14.60;99.90;;;;;;4906722;29;20025;-74
2023/09/26 07:59:57;;;;;;;6.53;5.10;;;14.80;99.90;;;;;;5234788;23;20245;-74
2023/09/26 08:02:23;;;;;;;8.05;5.38;;;14.90;99.90;;;;;;4889890;29;20043;-75
2023/09/26 08:04:48;;;;;;;11.15;5.13;;;15.10;99.90;;;;;;4881284;29;20021;-74
2023/09/26 08:07:14;;;;;;;7.28;5.15;;;15.20;99.90;;;;;;4889976;29;20037;-74
2023/09/26 08:09:40;;;;;;;11.00;6.20;;;15.30;99.90;;;;;;4889879;29;20041;-74
2023/09/26 08:12:06;;;;;;;9.90;4.90;;;15.30;99.90;;;;;;4890534;29;20318;-74
2023/09/26 08:14:32;;;;;;;10.20;5.35;;;15.40;99.90;;;;;;4888875;29;20033;-76
2023/09/26 08:16:57;;;;;;;7.93;5.10;;;15.60;99.90;;;;;;4892209;29;20037;-75
2023/09/26 08:19:23;;;;;;;9.52;4.88;;;15.70;99.90;;;;;;4896340;29;20131;-75
2023/09/26 08:21:49;;;;;;;7.60;5.00;;;15.70;99.90;;;;;;4901766;29;20029;-80
2023/09/26 08:24:14;;;;;;;8.52;5.25;;;15.80;99.90;;;;;;4899948;29;20041;-75
2023/09/26 08:26:40;;;;;;;9.38;4.43;;;15.90;99.90;;;;;;4890568;29;20032;-74
2023/09/26 08:29:05;;;;;;;8.98;4.95;;;15.80;99.90;;;;;;4889561;29;20025;-74
2023/09/26 08:31:31;;;;;;;9.52;5.28;;;16.00;99.90;;;;;;4889775;29;20041;-74
2023/09/26 08:33:57;;;;;;;9.88;5.75;;;16.00;99.90;;;;;;4890043;29;20029;-74
2023/09/26 08:36:23;;;;;;;8.82;5.05;;;16.20;99.90;;;;;;4888717;29;20196;-75
2023/09/26 08:38:50;;;;;;;8.85;4.88;;;16.30;99.90;;;;;;4890232;29;20021;-74
2023/09/26 08:44:01;;;;;;;10.57;5.15;;;16.70;99.90;;;;;;4890219;29;20047;-74
2023/09/26 08:46:27;;;;;;;13.05;4.80;;;16.80;99.90;;;;;;4889308;29;20052;-74
2023/09/26 08:48:54;;;;;;;11.65;5.32;;;16.90;99.90;;;;;;4890395;29;20028;-75
2023/09/26 08:51:20;;;;;;;10.93;5.03;;;17.10;99.90;;;;;;4889832;29;20041;-74
2023/09/26 08:53:46;;;;;;;9.18;4.88;;;17.20;99.90;;;;;;4890310;29;20051;-75
2023/09/26 08:56:12;;;;;;;10.90;4.65;;;17.20;99.90;;;;;;4888758;29;20032;-74
2023/09/26 08:58:41;;;;;;;8.98;5.10;;;17.30;99.90;;;;;;4889318;29;20048;-74
2023/09/26 09:01:07;;;;;;;9.32;4.72;;;17.30;99.90;;;;;;4906699;29;20226;-75
2023/09/26 09:03:33;;;;;;;10.35;5.00;;;17.40;99.90;;;;;;4910409;29;20171;-75
2023/09/26 09:05:58;;;;;;;6.43;5.05;;;17.50;99.90;;;;;;4905276;29;20338;-75
2023/09/26 09:08:24;;;;;;;8.07;4.90;;;17.50;99.90;;;;;;4908061;29;20040;-75
2023/09/26 09:10:56;;;;;;;8.20;4.68;;;17.60;99.90;;;;;;4908323;29;20095;-75
2023/09/26 09:13:34;;;;;;;10.85;4.93;;;17.70;99.90;;;;;;4900606;29;20059;-75
2023/09/26 09:16:16;;;;;;;8.00;5.28;;;17.80;99.80;;;;;;4897720;29;20096;-76
2023/09/26 09:18:50;;;;;;;7.70;4.40;;;17.90;99.40;;;;;;4905865;29;20326;-75
2023/09/26 09:21:20;;;;;;;10.32;4.28;;;18.00;99.50;;;;;;4886942;29;20056;-75
2023/09/26 09:23:47;;;;;;;8.27;4.18;;;18.20;99.20;;;;;;4905697;29;20060;-76
2023/09/26 09:26:14;;;;;;;9.18;4.30;;;18.40;98.80;;;;;;4906705;29;20039;-76
2023/09/26 09:28:39;;;;;;;10.50;5.07;;;18.50;98.40;;;;;;4905355;29;20071;-75
2023/09/26 09:31:05;;;;;;;10.10;5.07;;;18.70;97.90;;;;;;4904628;29;20298;-75
2023/09/26 09:33:31;;;;;;;8.50;4.63;;;18.70;97.40;;;;;;4889550;29;20040;-75
2023/09/26 09:35:57;;;;;;;6.60;4.55;;;18.80;97.30;;;;;;4906408;29;20020;-75
2023/09/26 09:38:23;;;;;;;8.40;4.10;;;18.90;97.10;;;;;;4905898;29;20266;-75
2023/09/26 09:40:50;;;;;;;8.30;4.50;;;19.00;97.00;;;;;;4906536;29;20051;-74
2023/09/26 09:43:16;;;;;;;9.77;5.63;;;19.10;96.70;;;;;;4906284;29;20127;-75
2023/09/26 09:45:43;;;;;;;9.50;5.13;;;19.20;96.40;;;;;;4905408;29;20256;-75
2023/09/26 09:48:09;;;;;;;8.68;4.30;;;19.30;96.00;;;;;;4906582;29;20091;-74
2023/09/26 09:50:39;;;;;;;8.02;4.00;;;19.40;95.90;;;;;;4905803;29;20043;-74
2023/09/26 09:53:05;;;;;;;7.28;4.53;;;19.50;95.80;;;;;;4900806;29;20097;-74
2023/09/26 09:55:39;;;;;;;6.45;4.60;;;19.70;95.40;;;;;;4904755;29;20305;-74
2023/09/26 09:58:12;;;;;;;7.97;4.15;;;19.80;95.20;;;;;;4906496;29;20036;-76
2023/09/26 10:00:40;;;;;;;11.00;4.10;;;19.80;94.70;;;;;;4906111;29;20048;-75
2023/09/26 10:03:06;;;;;;;5.97;4.15;;;19.90;94.70;;;;;;4906108;29;20309;-74
2023/09/26 10:05:34;;;;;;;7.55;4.60;;;20.00;94.20;;;;;;4906718;29;20030;-74
2023/09/26 10:08:01;;;;;;;6.20;3.45;;;20.00;93.80;;;;;;4904453;29;20016;-74
2023/09/26 10:10:28;;;;;;;6.32;3.40;;;20.10;93.40;;;;;;4902343;29;20036;-75
2023/09/26 10:12:54;;;;;;;4.55;3.00;;;20.20;93.60;;;;;;4906076;29;20028;-75
2023/09/26 10:15:20;;;;;;;6.50;3.30;;;20.30;93.20;;;;;;4905621;29;20083;-75
2023/09/26 10:17:48;;;;;;;4.63;2.80;;;20.30;92.80;;;;;;4908459;29;20183;-76
2023/09/26 10:20:15;;;;;;;3.50;2.35;;;20.40;92.80;;;;;;4893732;29;20274;-75
2023/09/26 10:22:43;;;;;;;5.03;2.60;;;20.50;92.60;;;;;;4909484;29;20199;-75
2023/09/26 10:25:16;;;;;;;4.15;1.92;;;20.60;92.20;;;;;;4906734;29;20029;-75
2023/09/26 10:27:47;;;;;;;4.88;2.47;;;20.70;91.90;;;;;;4909220;29;20029;-75
2023/09/26 10:30:18;;;;;;;6.13;2.35;;;20.80;91.60;;;;;;4908951;29;20095;-75
2023/09/26 10:32:45;;;;;;;4.05;2.63;;;20.80;91.60;;;;;;4909737;29;20108;-75
2023/09/26 10:35:15;;;;;;;5.05;2.50;;;21.00;91.50;;;;;;4909718;29;20024;-75
2023/09/26 10:37:54;;;;;;;3.90;2.30;;;21.10;91.40;;;;;;4909311;29;20032;-75
2023/09/26 10:40:21;;;;;;;4.35;2.05;;;21.20;90.70;;;;;;4909821;29;20052;-75
2023/09/26 10:42:48;;;;;;;5.30;2.33;;;21.40;90.70;;;;;;4892295;29;20322;-76
2023/09/26 10:45:15;;;;;;;3.47;1.92;;;21.50;90.50;;;;;;4908944;29;20150;-75
2023/09/26 10:47:41;;;;;;;4.00;1.92;;;21.70;90.30;;;;;;4909415;29;20028;-74
2023/09/26 10:50:09;;;;;;;3.13;1.83;;;21.90;90.20;;;;;;4909850;29;20191;-74
2023/09/26 10:52:35;;;;;;;3.95;2.55;;;22.20;89.70;;;;;;4908871;29;20048;-75
2023/09/26 10:55:04;;;;;;;4.60;2.00;;;22.60;88.30;;;;;;4908818;29;20024;-74
2023/09/26 10:57:30;;;;;;;5.78;2.42;;;23.00;86.50;;;;;;4908547;29;20036;-76
2023/09/26 10:59:56;;;;;;;5.80;2.13;;;23.60;85.50;;;;;;4906016;29;20241;-75
2023/09/26 11:02:22;;;;;;;7.68;1.83;;;24.20;84.00;;;;;;4909424;29;20056;-74
2023/09/26 11:04:47;;;;;;;4.35;2.03;;;24.90;80.10;;;;;;4907857;29;20047;-75
2023/09/26 11:07:15;;;;;;;5.25;1.85;;;25.80;79.00;;;;;;4905450;29;20052;-74
2023/09/26 11:09:44;;;;;;;3.40;1.98;;;26.50;76.20;;;;;;4909321;29;20024;-74
2023/09/26 11:12:15;;;;;;;5.88;1.70;;;27.30;73.70;;;;;;4909025;29;20044;-79
2023/09/26 11:14:40;;;;;;;8.48;2.00;;;27.80;71.90;;;;;;4904929;29;20032;-74
2023/09/26 11:17:09;;;;;;;5.90;1.65;;;28.30;70.30;;;;;;4908927;29;20072;-74
2023/09/26 11:19:35;;;;;;;4.00;1.58;;;28.90;69.20;;;;;;4909082;29;20033;-75
2023/09/26 11:22:01;;;;;;;5.93;1.30;;;29.50;67.60;;;;;;4908902;29;20152;-74
2023/09/26 11:24:31;;;;;;;3.95;1.40;;;30.10;66.00;;;;;;4909234;29;20021;-75
2023/09/26 11:27:00;;;;;;;3.20;1.40;;;30.60;64.50;;;;;;4909429;29;20072;-74
2023/09/26 11:29:26;;;;;;;7.03;1.90;;;31.00;62.90;;;;;;4907116;29;20036;-76
2023/09/26 11:31:53;;;;;;;2.60;1.80;;;31.60;61.20;;;;;;4908533;29;20067;-73
2023/09/26 11:34:19;;;;;;;4.90;1.50;;;31.40;60.90;;;;;;4908396;29;20043;-73
2023/09/26 11:36:49;;;;;;;5.40;1.47;;;31.60;60.40;;;;;;4908037;29;20044;-73
2023/09/26 11:39:18;;;;;;;2.97;1.20;;;32.00;60.40;;;;;;4907571;29;20024;-72
2023/09/26 11:41:44;;;;;;;3.28;1.50;;;32.60;58.20;;;;;;4902361;29;20041;-73
2023/09/26 11:44:11;;;;;;;4.30;1.45;;;32.80;57.80;;;;;;4900832;29;20024;-73
2023/09/26 11:46:49;;;;;;;4.60;1.23;;;33.30;57.20;;;;;;4908280;29;20056;-73
2023/09/26 11:49:16;;;;;;;2.72;1.42;;;33.30;56.90;;;;;;4906002;29;20059;-73
2023/09/26 11:51:43;;;;;;;5.78;1.73;;;33.60;56.00;;;;;;4908284;29;20048;-74
2023/09/26 11:54:12;;;;;;;5.00;1.10;;;33.60;55.00;;;;;;4908642;29;20020;-75
2023/09/26 11:56:43;;;;;;;3.67;1.75;;;33.80;55.50;;;;;;4891502;29;20192;-74
2023/09/26 11:59:09;;;;;;;2.30;0.80;;;34.60;54.70;;;;;;4905332;29;20028;-74
2023/09/26 12:01:35;;;;;;;1.80;0.90;;;34.60;53.40;;;;;;4890565;29;20033;-74
2023/09/26 12:04:09;;;;;;;2.45;1.10;;;34.30;53.10;;;;;;4908480;29;20302;-74
2023/09/26 12:06:34;;;;;;;6.70;1.27;;;34.70;52.60;;;;;;4905043;29;20052;-74
2023/09/26 12:09:00;;;;;;;2.58;0.85;;;34.70;53.00;;;;;;4907921;29;20028;-74
2023/09/26 12:11:26;;;;;;;2.38;0.93;;;34.50;52.10;;;;;;4909017;29;20081;-74
2023/09/26 12:13:52;;;;;;;2.58;0.73;;;35.30;52.50;;;;;;4908629;29;20048;-74
2023/09/26 12:16:18;;;;;;;3.33;1.05;;;36.20;51.60;;;;;;4908522;29;20117;-73
2023/09/26 12:18:43;;;;;;;2.05;0.80;;;36.40;50.70;;;;;;4891323;29;20043;-74
2023/09/26 12:21:09;;;;;;;3.45;0.73;;;36.40;50.20;;;;;;4908044;29;20051;-74
2023/09/26 12:23:35;;;;;;;1.80;0.75;;;36.30;49.30;;;;;;4907637;29;20082;-73
2023/09/26 12:26:01;;;;;;;2.75;1.00;;;36.50;49.40;;;;;;4907861;29;20037;-73
2023/09/26 12:28:27;;;;;;;1.80;0.73;;;37.00;49.80;;;;;;4908118;29;20102;-74
2023/09/26 12:30:53;;;;;;;3.75;0.90;;;37.60;48.40;;;;;;4907637;29;20029;-75
2023/09/26 12:33:20;;;;;;;3.55;0.90;;;37.50;48.10;;;;;;4907905;29;20032;-75
2023/09/26 12:35:45;;;;;;;2.92;1.13;;;38.10;48.30;;;;;;4906209;29;20037;-75
2023/09/26 12:38:11;;;;;;;4.55;0.80;;;38.60;47.50;;;;;;4908744;29;20076;-75
2023/09/26 12:40:37;;;;;;;2.25;0.60;;;39.30;46.90;;;;;;4906043;29;20116;-75
2023/09/26 12:43:04;;;;;;;1.60;0.80;;;38.50;46.50;;;;;;4907933;29;20037;-72
2023/09/26 12:45:30;;;;;;;2.33;0.70;;;38.70;46.60;;;;;;4907918;29;20294;-73
2023/09/26 12:47:56;;;;;;;3.40;0.73;;;38.80;46.40;;;;;;4907755;29;20033;-73
2023/09/26 12:50:21;;;;;;;6.32;1.00;;;39.00;46.40;;;;;;4910374;29;20083;-74
2023/09/26 12:52:47;;;;;;;1.70;0.60;;;39.10;45.60;;;;;;4889317;29;20028;-74
2023/09/26 12:55:13;;;;;;;2.58;0.70;;;38.70;45.20;;;;;;4907374;29;20219;-72
2023/09/26 12:57:39;;;;;;;1.60;0.50;;;39.60;44.90;;;;;;4890327;29;20311;-73
2023/09/26 13:00:09;;;;;;;1.40;0.60;;;40.30;44.70;;;;;;4907187;29;20116;-74
2023/09/26 13:02:39;;;;;;;2.80;0.70;;;40.50;43.80;;;;;;4907037;29;20049;-73
2023/09/26 13:05:06;;;;;;;2.20;0.70;;;40.80;44.20;;;;;;4905970;29;20040;-74
2023/09/26 13:07:32;;;;;;;2.33;0.55;;;40.80;43.30;;;;;;4904455;29;20046;-73
2023/09/26 13:09:58;;;;;;;3.75;0.60;;;41.00;44.00;;;;;;4906803;29;20055;-73
2023/09/26 13:12:24;;;;;;;3.08;0.70;;;41.60;43.00;;;;;;4907236;29;20204;-74
2023/09/26 13:14:49;;;;;;;2.55;0.52;;;41.30;43.30;;;;;;4906669;29;20028;-73
2023/09/26 13:17:16;;;;;;;2.53;0.65;;;41.90;43.10;;;;;;4907363;29;20071;-74
2023/09/26 13:19:43;;;;;;;1.17;0.40;;;41.80;42.20;;;;;;4906583;29;20063;-74
2023/09/26 13:22:09;;;;;;;;;;;41.70;42.10;;;;;;4907541;29;20028;-74
2023/09/26 13:24:35;;;;;;;3.90;0.60;;;41.60;40.90;;;;;;4906695;29;19951;-73
2023/09/26 13:27:03;;;;;;;1.25;0.40;;;41.70;41.90;;;;;;4907105;29;20036;-74
2023/09/26 13:29:30;;;;;;;1.52;0.40;;;41.70;40.80;;;;;;4903526;29;20052;-74
2023/09/26 13:31:56;;;;;;;1.63;0.40;;;41.80;41.20;;;;;;4906238;29;20040;-73
2023/09/26 13:34:21;;;;;;;3.47;0.45;;;42.20;40.80;;;;;;4907223;29;20084;-73
2023/09/26 13:36:47;;;;;;;1.33;0.50;;;42.70;41.40;;;;;;4896537;29;20050;-73
2023/09/26 13:39:12;;;;;;;1.35;0.43;;;43.00;41.70;;;;;;4869508;29;20034;-74
2023/09/26 13:41:38;;;;;;;2.08;0.60;;;44.00;39.90;;;;;;4868672;29;20231;-73
2023/09/26 13:44:04;;;;;;;3.95;0.82;;;44.00;39.90;;;;;;4869483;29;20055;-73
2023/09/26 13:46:29;;;;;;;1.92;0.50;;;44.20;40.00;;;;;;4870342;29;20033;-72
2023/09/26 13:48:56;;;;;;;1.90;0.32;;;43.90;39.70;;;;;;4854110;29;20219;-73
2023/09/26 13:51:22;;;;;;;2.50;0.40;;;44.20;39.30;;;;;;4870828;29;20602;-73
2023/09/26 13:53:47;;;;;;;1.13;0.30;;;44.10;39.20;;;;;;4869442;29;20034;-72
2023/09/26 13:56:13;;;;;;;2.47;0.50;;;44.60;38.80;;;;;;4871208;29;20032;-72
2023/09/26 13:58:39;;;;;;;1.67;0.60;;;44.50;38.30;;;;;;4870428;29;20335;-73
2023/09/26 14:01:05;;;;;;;5.57;0.83;;;44.70;38.60;;;;;;4870616;29;20060;-72
2023/09/26 14:03:31;;;;;;;;;;;45.20;38.30;;;;;;4869709;29;20050;-74
2023/09/26 14:05:58;;;;;;;1.43;0.40;;;45.20;38.00;;;;;;4867767;29;19908;-74
2023/09/26 14:08:24;;;;;;;2.00;0.40;;;45.10;38.10;;;;;;4868757;29;20042;-73
2023/09/26 14:10:49;;;;;;;1.53;0.40;;;44.90;38.30;;;;;;4869004;29;20096;-73
2023/09/26 14:13:15;;;;;;;1.03;0.47;;;44.90;38.50;;;;;;4868946;29;20029;-73
2023/09/26 14:15:43;;;;;;;1.43;0.60;;;45.50;38.50;;;;;;4868580;29;20302;-74
2023/09/26 14:18:09;;;;;;;4.63;0.88;;;45.50;37.50;;;;;;4869323;29;20116;-74
2023/09/26 14:20:38;;;;;;;1.93;0.63;;;45.70;39.50;;;;;;4868715;29;20211;-74
2023/09/26 14:23:05;;;;;;;1.27;0.68;;;45.40;38.20;;;;;;4869128;29;20254;-74
2023/09/26 14:25:31;;;;;;;0.93;0.45;;;45.10;37.80;;;;;;4869272;29;20029;-74
2023/09/26 14:28:00;;;;;;;2.28;0.50;;;45.00;38.80;;;;;;4869072;29;20036;-74
2023/09/26 14:30:26;;;;;;;1.52;0.50;;;45.50;37.60;;;;;;4868911;29;20068;-74
2023/09/26 14:32:52;;;;;;;10.07;0.70;;;45.40;37.80;;;;;;4868617;29;20033;-73
2023/09/26 14:35:18;;;;;;;2.60;0.80;;;46.30;38.10;;;;;;4852109;29;20098;-73
2023/09/26 14:37:43;;;;;;;1.30;0.40;;;45.90;38.80;;;;;;4868808;29;20034;-73
2023/09/26 14:40:10;;;;;;;3.37;0.50;;;46.20;36.70;;;;;;4868978;29;20034;-73
2023/09/26 14:42:39;;;;;;;1.70;0.77;;;45.50;37.40;;;;;;4868988;29;20147;-74
2023/09/26 14:45:05;;;;;;;2.72;0.80;;;46.20;37.70;;;;;;4848570;29;20041;-73
2023/09/26 14:47:31;;;;;;;1.02;0.60;;;45.80;38.10;;;;;;4868970;29;20045;-73
2023/09/26 14:49:56;;;;;;;3.47;0.80;;;45.60;38.30;;;;;;4868605;29;20033;-73
2023/09/26 14:52:22;;;;;;;2.40;0.70;;;45.70;38.50;;;;;;4869125;29;20065;-74
2023/09/26 14:54:48;;;;;;;1.87;0.70;;;45.70;38.10;;;;;;4867953;29;20041;-73
2023/09/26 14:57:13;;;;;;;1.57;0.70;;;45.90;38.30;;;;;;4868639;29;20029;-74
2023/09/26 14:59:39;;;;;;;2.60;0.70;;;45.20;38.50;;;;;;4868058;29;20436;-75
2023/09/26 15:02:05;;;;;;;1.77;0.73;;;45.20;38.90;;;;;;4869111;29;20231;-74
2023/09/26 15:04:31;;;;;;;1.30;0.60;;;45.50;38.70;;;;;;4870214;29;20218;-74
2023/09/26 15:06:56;;;;;;;1.80;0.80;;;45.80;39.40;;;;;;4869899;29;20720;-74
2023/09/26 15:09:22;;;;;;;3.40;0.90;;;45.90;38.60;;;;;;4869033;29;20121;-75
2023/09/26 15:11:48;;;;;;;2.27;0.90;;;45.70;38.40;;;;;;4868070;29;20029;-74
2023/09/26 15:14:16;;;;;;;3.23;0.80;;;45.40;38.20;;;;;;4868230;29;20052;-74
2023/09/26 15:16:42;;;;;;;2.28;1.10;;;44.70;38.50;;;;;;4871313;29;20060;-74
2023/09/26 15:19:08;;;;;;;1.90;0.77;;;44.30;39.50;;;;;;4871654;29;20021;-74
2023/09/26 15:21:33;;;;;;;1.98;0.80;;;44.70;40.20;;;;;;4872139;29;20077;-74
2023/09/26 15:23:59;;;;;;;1.38;0.60;;;44.90;39.50;;;;;;4871267;29;20078;-74
2023/09/26 15:26:25;;;;;;;1.70;0.80;;;45.40;39.10;;;;;;4872001;29;20085;-74
2023/09/26 15:28:51;;;;;;;2.80;0.90;;;45.30;38.50;;;;;;4871754;29;20053;-74
2023/09/26 15:31:21;;;;;;;1.88;0.52;;;45.20;39.40;;;;;;4871687;29;20620;-74
2023/09/26 15:33:47;;;;;;;2.88;0.88;;;45.60;39.60;;;;;;4871372;29;20017;-74
2023/09/26 15:36:14;;;;;;;2.57;0.80;;;44.60;38.80;;;;;;4867745;29;20056;-74
2023/09/26 15:38:40;;;;;;;2.25;0.80;;;44.40;39.20;;;;;;4871126;29;20490;-74
2023/09/26 15:41:19;;;;;;;1.67;0.60;;;43.70;39.40;;;;;;4871068;29;20060;-74
2023/09/26 15:43:49;;;;;;;1.67;0.68;;;43.20;40.10;;;;;;4870789;29;20033;-74
2023/09/26 15:46:24;;;;;;;3.80;1.20;;;43.30;40.10;;;;;;4871593;29;20076;-74
2023/09/26 15:48:51;;;;;;;2.13;0.80;;;43.10;40.10;;;;;;4867763;29;20361;-74
2023/09/26 15:51:18;;;;;;;3.15;1.00;;;43.30;39.90;;;;;;4871343;29;20093;-74
2023/09/26 15:53:44;;;;;;;;;;;43.50;40.50;;;;;;4871822;29;20311;-74
2023/09/26 15:56:11;;;;;;;2.25;1.00;;;43.50;40.30;;;;;;4870794;29;19908;-75
2023/09/26 15:58:37;;;;;;;2.25;1.10;;;43.60;39.70;;;;;;4871578;29;20037;-75
2023/09/26 16:01:04;;;;;;;2.00;1.10;;;43.40;40.10;;;;;;4869000;29;20351;-74
2023/09/26 16:03:29;;;;;;;2.03;0.80;;;43.30;40.20;;;;;;4867830;29;20112;-74
2023/09/26 16:05:55;;;;;;;2.80;1.17;;;42.80;39.70;;;;;;4871086;29;20794;-74
2023/09/26 16:08:21;;;;;;;2.97;1.00;;;42.50;40.70;;;;;;4871279;29;20048;-74
2023/09/26 16:10:47;;;;;;;5.22;1.00;;;42.50;40.10;;;;;;4878761;29;20029;-74
2023/09/26 16:13:14;;;;;;;4.85;0.98;;;42.20;40.10;;;;;;4868799;29;20021;-74
2023/09/26 16:15:39;;;;;;;2.42;1.08;;;41.70;40.30;;;;;;4884377;29;20060;-71
2023/09/26 16:18:05;;;;;;;2.78;1.00;;;40.20;41.50;;;;;;4877493;29;20057;-74
2023/09/26 16:20:31;;;;;;;2.28;0.80;;;39.30;42.00;;;;;;4854691;29;20147;-75
2023/09/26 16:22:57;;;;;;;6.10;1.42;;;37.20;44.40;;;;;;4870170;29;20029;-76
2023/09/26 16:25:22;;;;;;;2.25;1.20;;;35.80;45.40;;;;;;4870630;29;20273;-76
2023/09/26 16:27:48;;;;;;;2.22;1.02;;;34.00;47.20;;;;;;4870367;29;20096;-75
2023/09/26 16:30:14;;;;;;;3.63;1.20;;;32.80;48.60;;;;;;4854325;29;20451;-74
2023/09/26 16:32:39;;;;;;;2.55;1.40;;;31.90;50.80;;;;;;4854291;29;20045;-74
2023/09/26 16:35:06;;;;;;;2.95;1.67;;;31.50;51.40;;;;;;4869302;29;20025;-74
2023/09/26 16:37:31;;;;;;;2.75;1.40;;;30.80;51.80;;;;;;4870849;29;20025;-76
2023/09/26 16:39:57;;;;;;;2.65;1.20;;;30.30;52.80;;;;;;4871082;29;20041;-75
2023/09/26 16:42:23;;;;;;;3.55;1.70;;;29.80;53.80;;;;;;4870263;29;20068;-74
2023/09/26 16:44:49;;;;;;;3.22;1.38;;;29.40;54.80;;;;;;4870179;29;20244;-74
2023/09/26 16:47:18;;;;;;;3.78;1.40;;;29.10;55.60;;;;;;4870622;29;20072;-74
2023/09/26 16:49:44;;;;;;;4.18;1.77;;;28.70;56.20;;;;;;4870072;29;20041;-75
2023/09/26 16:52:10;;;;;;;4.05;1.73;;;28.50;56.80;;;;;;4870231;29;20081;-73
2023/09/26 16:54:36;;;;;;;3.97;1.85;;;28.30;56.70;;;;;;4869964;29;20041;-73
2023/09/26 16:57:02;;;;;;;3.15;1.80;;;28.00;56.60;;;;;;4867923;29;20295;-74
2023/09/26 16:59:28;;;;;;;3.05;1.52;;;27.70;58.00;;;;;;4869838;29;20232;-74
2023/09/26 17:01:53;;;;;;;5.55;2.95;;;27.50;58.30;;;;;;4869762;29;20052;-74
2023/09/26 17:04:22;;;;;;;5.90;3.08;;;27.50;58.60;;;;;;4867009;29;20029;-74
2023/09/26 17:06:47;;;;;;;4.53;2.72;;;27.30;58.70;;;;;;4869109;29;20030;-76
2023/09/26 17:09:13;;;;;;;5.88;2.50;;;27.10;59.20;;;;;;4866914;29;20242;-75
2023/09/26 17:11:39;;;;;;;3.88;1.88;;;27.00;59.50;;;;;;4869806;29;20277;-73
2023/09/26 17:14:05;;;;;;;4.65;2.35;;;26.80;59.80;;;;;;4866432;29;20260;-74
2023/09/26 17:16:31;;;;;;;4.57;2.13;;;26.60;60.10;;;;;;4852830;29;20044;-75
2023/09/26 17:18:57;;;;;;;3.83;2.05;;;26.40;60.80;;;;;;4869812;29;20100;-74
2023/09/26 17:21:23;;;;;;;4.95;2.10;;;26.10;61.30;;;;;;4869871;29;20105;-73
2023/09/26 17:23:49;;;;;;;5.30;2.30;;;25.90;61.70;;;;;;4869702;29;20034;-73
2023/09/26 17:26:14;;;;;;;6.10;2.72;;;25.70;62.40;;;;;;4852991;29;20034;-74
2023/09/26 17:28:40;;;;;;;5.15;2.45;;;25.50;63.50;;;;;;4869492;29;20049;-73
2023/09/26 17:31:06;;;;;;;7.10;2.50;;;25.20;64.20;;;;;;4852703;29;20321;-73
2023/09/26 17:33:33;;;;;;;6.95;2.88;;;24.90;65.10;;;;;;4869730;29;20072;-74
2023/09/26 17:36:04;;;;;;;6.60;3.10;;;24.60;66.00;;;;;;4869421;29;20025;-74
2023/09/26 17:38:39;;;;;;;6.97;2.72;;;24.40;67.30;;;;;;4869538;29;20045;-74
2023/09/26 17:41:07;;;;;;;5.47;3.30;;;24.10;67.40;;;;;;4865861;29;20300;-75
2023/09/26 17:43:34;;;;;;;9.68;2.90;;;23.90;68.10;;;;;;4869948;29;20037;-76